Hauptseite
METAR-TAF:

METAR-TAF

Flughäfen :

Flugplatz Oberpfaffenhofen

Oberpfaffenhofen, Deutschland

Breite: 48-05N, Länge: 011-17E, Höhe: 600 m

Beobachtung

Neuester Wetterbericht von vor 12 Minuten, um 13:20 UTC
Wind 4 kt aus West, variierte zwischen Süd/Südwest und Nord/Nordwest
Temperatur 18°C
Luftfeuchtigkeit 26%
Luftdruck 1026 hPa
Sichtweite 10 km oder mehr

METAR: EDMO 231320Z AUTO 26004KT 200V330 9999 // NCD 18/M02 Q1026

Zeit: 14:32 (13:32 UTC)

Prognose

Neuester Wetterbericht von vor 20 Stunden und 32 Minuten, um 17:00 UTC
Gültige Prognose vom 22 um 18 UTC bis 23 um 03 UTC
Wind 3 kt aus unterschiedlichen Richtungen
Sichtweite 10 km oder mehr
keine Wolken unter 1500 m und keine Kumulonimbus oder Gewitterwolken

TAF: EDMO 221700Z 2218/2303 VRB03KT CAVOK

Wetterbeobachtungen und Prognosen von mehr als 4000 Flughäfen (METAR und TAF Bericht).

Die verfügbaren Stationen werden durch gelbe und rote Markierungen auf der Karte dargestellt.

Führen Sie die Maus auf sie, um den Namen der Station zu sehen.

Darauf klicken, um die Beobachtung von Wetterbeobachtungen und Prognosen zu sehen.

Um die Karte zu ändern : klicken Sie auf den grünen Tasten mit einem schwarzen Kreuz Zum Vergrößern, auf den grünen Button mit einem Gedankenstrich zu verkleinern, oder auf die grünen Pfeile für benachbarte Karten.


METAR-TAF: